Time;durP1;ratioP1;P1;durP2;ratioP2;P2;SDS_P1;SDS_P2;PMS_P1;PMS_P2;Temp;Humidity;BMP_temperature;BMP_pressure;BME280_temperature;BME280_humidity;BME280_pressure;Samples;Min_cycle;Max_cycle;Signal;HPM_P1;HPM_P2
2023/05/26 00:00:34;;;;;;;14.52;3.33;;;7.40;99.90;;;;;;5048042;28;20089;-90
2023/05/26 00:03:03;;;;;;;11.80;3.03;;;7.40;99.90;;;;;;5064767;28;20040;-90
2023/05/26 00:05:29;;;;;;;13.45;3.35;;;7.40;99.90;;;;;;5080080;28;20036;-90
2023/05/26 00:07:55;;;;;;;14.82;3.10;;;7.30;99.90;;;;;;5069194;28;20666;-90
2023/05/26 00:10:21;;;;;;;15.25;3.60;;;7.30;99.90;;;;;;5108513;28;20118;-89
2023/05/26 00:12:47;;;;;;;13.70;3.90;;;7.30;99.90;;;;;;5064151;28;20052;-91
2023/05/26 00:15:13;;;;;;;11.70;3.00;;;7.30;99.90;;;;;;5111120;28;20035;-90
2023/05/26 00:17:38;;;;;;;14.10;3.13;;;7.30;99.90;;;;;;5058141;28;20079;-90
2023/05/26 00:20:07;;;;;;;12.75;3.63;;;7.30;99.90;;;;;;5113335;28;20396;-90
2023/05/26 00:22:35;;;;;;;17.75;3.25;;;7.40;99.90;;;;;;5112140;28;20036;-90
2023/05/26 00:25:01;;;;;;;16.17;4.13;;;7.40;99.90;;;;;;5110706;28;20051;-90
2023/05/26 00:27:27;;;;;;;12.23;3.05;;;7.40;99.90;;;;;;5076104;28;20044;-89
2023/05/26 00:29:52;;;;;;;11.95;3.17;;;7.40;99.90;;;;;;5076897;28;20157;-88
2023/05/26 00:32:18;;;;;;;12.27;2.88;;;7.30;99.90;;;;;;5072859;28;20104;-89
2023/05/26 00:34:44;;;;;;;20.30;3.78;;;7.30;99.90;;;;;;5079005;28;20124;-90
2023/05/26 00:37:10;;;;;;;16.05;3.63;;;7.20;99.90;;;;;;5065865;28;20032;-90
2023/05/26 00:39:35;;;;;;;10.75;3.10;;;7.10;99.90;;;;;;5077895;28;20123;-89
2023/05/26 00:42:01;;;;;;;14.48;3.75;;;7.10;99.90;;;;;;5077096;28;20509;-88
2023/05/26 00:44:27;;;;;;;17.33;3.83;;;7.10;99.90;;;;;;5095198;28;20393;-90
2023/05/26 00:46:53;;;;;;;11.88;3.03;;;7.00;99.90;;;;;;5059933;28;20036;-89
2023/05/26 00:49:19;;;;;;;10.45;2.60;;;7.00;99.90;;;;;;5076439;28;20379;-89
2023/05/26 00:51:45;;;;;;;22.48;4.35;;;6.90;99.90;;;;;;5059113;28;20482;-89
2023/05/26 00:54:13;;;;;;;15.48;3.78;;;6.80;99.90;;;;;;5094758;28;20028;-89
2023/05/26 00:56:39;;;;;;;10.32;2.83;;;6.80;99.90;;;;;;5092521;28;20040;-88
2023/05/26 00:59:05;;;;;;;11.80;2.67;;;6.80;99.90;;;;;;5073185;28;20036;-89
2023/05/26 01:01:31;;;;;;;16.42;3.70;;;6.90;99.90;;;;;;5091763;28;20050;-88
2023/05/26 01:03:58;;;;;;;12.23;3.55;;;6.90;99.90;;;;;;5091424;28;20660;-90
2023/05/26 01:06:24;;;;;;;16.77;2.80;;;6.90;99.90;;;;;;5109308;28;20112;-89
2023/05/26 01:08:51;;;;;;;17.27;3.40;;;6.90;99.90;;;;;;5074889;28;20854;-90
2023/05/26 01:11:34;;;;;;;13.30;3.20;;;6.90;99.90;;;;;;5108498;28;20048;-89
2023/05/26 01:14:42;;;;;;;14.88;3.30;;;6.90;99.90;;;;;;5077934;28;20036;-88
2023/05/26 01:17:18;;;;;;;14.02;3.65;;;6.90;99.90;;;;;;5074691;28;20097;-89
2023/05/26 01:20:09;;;;;;;18.33;3.40;;;6.80;99.90;;;;;;5077501;28;20043;-89
2023/05/26 01:23:01;;;;;;;17.50;3.33;;;6.80;99.90;;;;;;5112352;27;20043;-89
2023/05/26 01:25:32;;;;;;;12.85;2.75;;;6.80;99.90;;;;;;5032042;27;20051;-89
2023/05/26 01:28:06;;;;;;;13.32;2.80;;;6.80;99.90;;;;;;5093001;28;20035;-89
2023/05/26 01:30:34;;;;;;;16.95;3.20;;;6.70;99.90;;;;;;5055579;28;20043;-88
2023/05/26 01:33:01;;;;;;;13.13;3.78;;;6.70;99.90;;;;;;5082719;28;20039;-90
2023/05/26 01:35:27;;;;;;;13.35;3.05;;;6.70;99.90;;;;;;5076287;28;20042;-89
2023/05/26 01:37:54;;;;;;;15.85;3.30;;;6.70;99.90;;;;;;5112110;28;20481;-89
2023/05/26 01:40:19;;;;;;;16.55;2.80;;;6.60;99.90;;;;;;5103397;28;20044;-89
2023/05/26 01:42:55;;;;;;;17.17;3.22;;;6.70;99.90;;;;;;5102578;28;20043;-90
2023/05/26 01:45:25;;;;;;;10.73;3.80;;;6.70;99.90;;;;;;5068905;28;20036;-90
2023/05/26 01:47:57;;;;;;;13.82;3.38;;;6.70;99.90;;;;;;5112076;28;20035;-90
2023/05/26 01:50:29;;;;;;;17.70;3.65;;;6.70;99.90;;;;;;5077603;28;20036;-90
2023/05/26 01:52:57;;;;;;;18.15;3.25;;;6.90;99.90;;;;;;5077273;28;20050;-91
2023/05/26 01:55:24;;;;;;;9.27;3.28;;;6.70;99.90;;;;;;5058242;28;20043;-90
2023/05/26 01:57:51;;;;;;;12.63;3.63;;;6.70;99.90;;;;;;5109306;28;20044;-90
2023/05/26 02:00:26;;;;;;;17.88;3.45;;;6.70;99.90;;;;;;5074242;28;20048;-90
2023/05/26 02:02:52;;;;;;;10.45;3.15;;;6.70;99.90;;;;;;5089472;28;20036;-90
2023/05/26 02:05:18;;;;;;;13.70;2.70;;;6.70;99.90;;;;;;5065911;28;20047;-90
2023/05/26 02:07:45;;;;;;;18.75;3.08;;;6.70;99.90;;;;;;5094429;28;20536;-90
2023/05/26 02:10:11;;;;;;;12.98;3.10;;;6.60;99.90;;;;;;5088100;28;20100;-90
2023/05/26 02:12:37;;;;;;;11.00;2.78;;;6.60;99.90;;;;;;5075713;28;20500;-90
2023/05/26 02:15:04;;;;;;;10.38;2.78;;;6.60;99.90;;;;;;5104635;28;20040;-90
2023/05/26 02:17:30;;;;;;;15.95;3.17;;;6.60;99.90;;;;;;5075681;28;20118;-90
2023/05/26 02:19:57;;;;;;;12.77;3.42;;;6.60;99.90;;;;;;5066726;28;20291;-90
2023/05/26 02:22:23;;;;;;;12.85;2.80;;;6.60;99.90;;;;;;5059940;28;20039;-88
2023/05/26 02:24:48;;;;;;;10.45;2.83;;;6.60;99.90;;;;;;5075806;28;20090;-89
2023/05/26 02:27:15;;;;;;;11.52;2.97;;;6.60;99.90;;;;;;5056209;28;20035;-90
2023/05/26 02:29:41;;;;;;;12.73;2.67;;;6.80;99.90;;;;;;5060414;28;20035;-90
2023/05/26 02:32:07;;;;;;;11.07;3.08;;;6.70;99.90;;;;;;5042593;28;20062;-89
2023/05/26 02:34:33;;;;;;;10.50;2.80;;;6.70;99.90;;;;;;5057050;28;20384;-89
2023/05/26 02:36:58;;;;;;;11.00;3.00;;;6.70;99.90;;;;;;5075555;28;20703;-90
2023/05/26 02:39:24;;;;;;;9.90;2.80;;;6.60;99.90;;;;;;5040530;28;20702;-89
2023/05/26 02:41:51;;;;;;;13.25;2.88;;;6.60;99.90;;;;;;5076344;28;20036;-89
2023/05/26 02:44:17;;;;;;;12.93;3.17;;;6.50;99.90;;;;;;5107182;28;20058;-90
2023/05/26 02:46:42;;;;;;;12.20;3.40;;;6.50;99.90;;;;;;5059564;28;20035;-90
2023/05/26 02:49:08;;;;;;;15.63;3.33;;;6.50;99.90;;;;;;5070434;28;20065;-90
2023/05/26 02:51:35;;;;;;;9.90;2.97;;;6.50;99.90;;;;;;5075837;28;20042;-90
2023/05/26 02:54:01;;;;;;;8.90;2.80;;;6.50;99.90;;;;;;5060256;27;20035;-89
2023/05/26 02:56:27;;;;;;;14.13;2.75;;;6.50;99.90;;;;;;5059412;28;20036;-89
2023/05/26 02:58:52;;;;;;;12.52;2.78;;;6.50;99.90;;;;;;5058452;28;20580;-89
2023/05/26 03:01:18;;;;;;;10.05;2.05;;;6.40;99.90;;;;;;5075416;28;20038;-89
2023/05/26 03:03:44;;;;;;;9.38;2.38;;;6.30;99.90;;;;;;5075392;28;20038;-89
2023/05/26 03:06:10;;;;;;;14.65;3.00;;;6.30;99.90;;;;;;5042532;28;20040;-88
2023/05/26 03:08:37;;;;;;;12.93;3.10;;;6.20;99.90;;;;;;5091782;28;20039;-89
2023/05/26 03:11:04;;;;;;;10.45;3.13;;;6.30;99.90;;;;;;5075992;28;20048;-89
2023/05/26 03:13:30;;;;;;;10.95;3.22;;;6.20;99.90;;;;;;5066469;28;20092;-90
2023/05/26 03:15:56;;;;;;;13.55;2.60;;;6.20;99.90;;;;;;5060040;28;20437;-91
2023/05/26 03:18:21;;;;;;;12.77;2.78;;;6.20;99.90;;;;;;5074452;28;20118;-88
2023/05/26 03:20:48;;;;;;;12.20;2.90;;;6.20;99.90;;;;;;5067589;28;20277;-90
2023/05/26 03:23:17;;;;;;;11.37;2.70;;;6.30;99.90;;;;;;5112186;28;20074;-90
2023/05/26 03:25:43;;;;;;;9.32;2.95;;;6.30;99.90;;;;;;5073513;28;20515;-90
2023/05/26 03:28:09;;;;;;;11.07;3.28;;;6.30;99.90;;;;;;5106375;28;20031;-90
2023/05/26 03:30:35;;;;;;;14.93;3.75;;;6.20;99.90;;;;;;5062893;28;20036;-89
2023/05/26 03:33:01;;;;;;;14.73;3.03;;;6.30;99.90;;;;;;5084718;28;20043;-89
2023/05/26 03:35:27;;;;;;;15.35;3.45;;;6.30;99.90;;;;;;5062992;28;20078;-90
2023/05/26 03:37:52;;;;;;;15.55;3.38;;;6.30;99.90;;;;;;5064971;28;20499;-90
2023/05/26 03:40:18;;;;;;;15.68;3.40;;;6.30;99.90;;;;;;5060346;28;20039;-91
2023/05/26 03:42:44;;;;;;;9.50;2.30;;;6.30;99.90;;;;;;5092826;28;20171;-90
2023/05/26 03:45:12;;;;;;;13.98;3.08;;;6.40;99.90;;;;;;5080955;28;20074;-90
2023/05/26 03:47:38;;;;;;;15.07;3.65;;;6.40;99.90;;;;;;5079660;28;20044;-90
2023/05/26 03:50:07;;;;;;;13.38;3.60;;;6.40;99.90;;;;;;5097549;28;20092;-90
2023/05/26 03:52:33;;;;;;;12.45;2.67;;;6.50;99.90;;;;;;5078887;28;20481;-90
2023/05/26 03:54:58;;;;;;;10.88;2.60;;;6.50;99.90;;;;;;5111307;28;20039;-89
2023/05/26 03:57:24;;;;;;;16.38;3.22;;;6.50;99.90;;;;;;5094316;28;20039;-89
2023/05/26 03:59:50;;;;;;;16.70;3.60;;;6.50;99.90;;;;;;5062015;28;20036;-90
2023/05/26 04:02:16;;;;;;;17.48;3.20;;;6.70;99.90;;;;;;5108715;28;20043;-90
2023/05/26 04:04:42;;;;;;;12.13;2.60;;;6.50;99.90;;;;;;5107693;28;20481;-89
2023/05/26 04:07:13;;;;;;;8.43;2.50;;;6.50;99.90;;;;;;5111121;28;20120;-89
2023/05/26 04:09:39;;;;;;;16.45;3.33;;;6.50;99.90;;;;;;5075777;28;20075;-90
2023/05/26 04:12:05;;;;;;;14.00;3.20;;;5.80;99.90;;;;;;5070096;28;20150;-90
2023/05/26 04:14:31;;;;;;;16.27;3.25;;;6.60;99.90;;;;;;5055771;28;20044;-89
2023/05/26 04:16:57;;;;;;;12.25;2.80;;;6.60;99.90;;;;;;5071205;28;20048;-90
2023/05/26 04:19:22;;;;;;;18.17;3.03;;;6.60;99.90;;;;;;5105583;28;20400;-90
2023/05/26 04:21:49;;;;;;;15.27;3.30;;;6.70;99.90;;;;;;5079424;28;20062;-90
2023/05/26 04:24:14;;;;;;;14.40;3.00;;;6.70;99.90;;;;;;5095667;28;20059;-90
2023/05/26 04:26:40;;;;;;;12.25;2.67;;;6.70;99.90;;;;;;5095338;28;20047;-88
2023/05/26 04:29:06;;;;;;;14.35;3.10;;;6.20;99.90;;;;;;5049293;28;20123;-90
2023/05/26 04:31:32;;;;;;;10.68;3.13;;;6.80;99.90;;;;;;5060374;28;20047;-91
2023/05/26 04:33:58;;;;;;;14.48;3.38;;;6.80;99.90;;;;;;5073374;28;20082;-90
2023/05/26 04:36:24;;;;;;;13.30;2.97;;;6.90;99.90;;;;;;5059485;28;20068;-93
2023/05/26 04:38:51;;;;;;;10.77;3.35;;;7.00;99.90;;;;;;5104950;28;20165;-95
2023/05/26 04:41:18;;;;;;;12.10;3.05;;;7.00;99.90;;;;;;5102708;28;20043;-86
2023/05/26 04:43:45;;;;;;;8.52;2.13;;;7.10;99.90;;;;;;5076199;28;20405;-86
2023/05/26 04:46:11;;;;;;;12.83;3.10;;;7.10;99.90;;;;;;5076876;28;20521;-91
2023/05/26 04:48:40;;;;;;;13.90;3.40;;;7.20;99.90;;;;;;5069916;28;20509;-89
2023/05/26 04:51:07;;;;;;;13.40;2.67;;;7.20;99.90;;;;;;5072516;28;20040;-90
2023/05/26 04:53:33;;;;;;;15.80;3.83;;;7.10;99.90;;;;;;5072407;28;20044;-90
2023/05/26 04:56:00;;;;;;;17.00;3.25;;;7.40;99.90;;;;;;5090895;28;20082;-90
2023/05/26 04:58:26;;;;;;;11.75;2.65;;;7.50;99.90;;;;;;5073560;28;20143;-90
2023/05/26 05:00:53;;;;;;;13.60;2.80;;;7.60;99.90;;;;;;5062177;28;20489;-91
2023/05/26 05:03:21;;;;;;;11.38;3.63;;;7.70;99.90;;;;;;5077832;28;20650;-90
2023/05/26 05:05:47;;;;;;;17.85;3.00;;;7.80;99.90;;;;;;5078258;28;20051;-90
2023/05/26 05:08:13;;;;;;;13.67;3.90;;;8.00;99.90;;;;;;5060295;28;20028;-92
2023/05/26 05:10:39;;;;;;;10.60;3.15;;;8.10;99.90;;;;;;5094568;28;20043;-91
2023/05/26 05:13:05;;;;;;;11.45;2.90;;;8.20;99.90;;;;;;5053813;28;20093;-89
2023/05/26 05:15:31;;;;;;;11.48;3.10;;;8.30;99.90;;;;;;5109422;28;20058;-87
2023/05/26 05:17:58;;;;;;;12.63;2.90;;;8.50;99.90;;;;;;5092954;28;20078;-90
2023/05/26 05:20:25;;;;;;;9.73;3.10;;;;;;;;;;5078539;28;20509;-91
2023/05/26 05:22:50;;;;;;;10.93;3.00;;;8.90;99.90;;;;;;5058466;28;20076;-92
2023/05/26 05:25:17;;;;;;;13.10;3.40;;;9.00;99.90;;;;;;5056514;28;20090;-89
2023/05/26 05:27:43;;;;;;;15.52;2.92;;;9.20;99.90;;;;;;5071092;28;20511;-88
2023/05/26 05:30:09;;;;;;;14.68;3.17;;;9.30;99.90;;;;;;5059555;28;20043;-93
2023/05/26 05:32:35;;;;;;;13.57;3.30;;;9.50;99.90;;;;;;5079533;28;20043;-93
2023/05/26 05:35:01;;;;;;;13.48;2.70;;;9.40;99.90;;;;;;5064272;28;20088;-96
2023/05/26 05:37:27;;;;;;;14.13;3.03;;;9.70;99.90;;;;;;5087768;28;20054;-91
2023/05/26 05:39:52;;;;;;;13.50;3.47;;;9.90;99.90;;;;;;5063336;28;20035;-91
2023/05/26 05:42:21;;;;;;;10.40;3.25;;;10.00;99.90;;;;;;5063272;28;20466;-91
2023/05/26 05:44:47;;;;;;;14.45;3.55;;;10.10;99.90;;;;;;5078823;28;20118;-91
2023/05/26 05:47:13;;;;;;;11.88;2.85;;;10.30;99.90;;;;;;5092671;27;20119;-89
2023/05/26 05:49:38;;;;;;;12.23;3.58;;;10.60;99.90;;;;;;5060419;28;20050;-90
2023/05/26 05:52:04;;;;;;;12.63;3.35;;;11.20;99.90;;;;;;5106456;28;20070;-90
2023/05/26 05:54:30;;;;;;;13.40;3.20;;;12.20;99.90;;;;;;5044717;28;20023;-91
2023/05/26 05:56:56;;;;;;;11.55;2.70;;;13.00;99.90;;;;;;5060440;28;20046;-90
2023/05/26 05:59:22;;;;;;;13.15;2.88;;;13.80;99.90;;;;;;5075102;28;20485;-89
2023/05/26 06:01:47;;;;;;;12.50;2.80;;;14.20;99.90;;;;;;5076217;28;20039;-89
2023/05/26 06:04:13;;;;;;;13.48;3.00;;;14.20;99.90;;;;;;5062018;28;20044;-90
2023/05/26 06:06:39;;;;;;;12.98;3.55;;;14.00;99.90;;;;;;5092054;28;20063;-90
2023/05/26 06:09:05;;;;;;;12.32;2.47;;;13.60;99.90;;;;;;5035472;28;20040;-89
2023/05/26 06:11:30;;;;;;;16.75;2.72;;;13.50;99.90;;;;;;5073749;28;20096;-89
2023/05/26 06:13:56;;;;;;;14.10;2.90;;;13.50;99.90;;;;;;5078337;28;20082;-87
2023/05/26 06:16:22;;;;;;;14.55;3.00;;;13.80;99.90;;;;;;5060790;28;20398;-90
2023/05/26 06:18:47;;;;;;;15.32;3.13;;;14.40;99.90;;;;;;5067694;28;20036;-89
2023/05/26 06:21:13;;;;;;;15.40;3.50;;;15.10;99.90;;;;;;5077699;28;20099;-91
2023/05/26 06:23:39;;;;;;;11.07;3.60;;;16.00;99.90;;;;;;5061327;28;20055;-90
2023/05/26 06:26:05;;;;;;;13.55;3.10;;;16.00;99.90;;;;;;5072029;28;20043;-90
2023/05/26 06:28:31;;;;;;;12.93;3.08;;;16.00;99.90;;;;;;5071634;28;20047;-91
2023/05/26 06:30:56;;;;;;;12.68;2.88;;;15.60;99.90;;;;;;5081746;28;20085;-91
2023/05/26 06:33:22;;;;;;;9.68;2.88;;;15.20;99.90;;;;;;5081093;28;20031;-88
2023/05/26 06:35:48;;;;;;;8.60;2.55;;;14.80;99.90;;;;;;5060110;28;20047;-91
2023/05/26 06:38:14;;;;;;;11.20;2.67;;;14.60;99.90;;;;;;5071696;28;20050;-92
2023/05/26 06:40:39;;;;;;;11.73;3.05;;;14.60;99.90;;;;;;5057550;28;20401;-88
2023/05/26 06:43:05;;;;;;;13.10;2.80;;;14.70;99.90;;;;;;5069720;28;20047;-90
2023/05/26 06:45:31;;;;;;;9.00;2.67;;;15.20;99.90;;;;;;5070310;28;20494;-90
2023/05/26 06:47:57;;;;;;;10.80;3.05;;;15.80;99.90;;;;;;5069581;28;20035;-91
2023/05/26 06:50:23;;;;;;;12.00;3.22;;;16.50;99.90;;;;;;5060423;28;20119;-91
2023/05/26 06:52:48;;;;;;;13.90;2.83;;;17.10;99.90;;;;;;5059193;28;20416;-91
2023/05/26 06:55:16;;;;;;;11.35;2.42;;;17.70;99.90;;;;;;5059983;28;20688;-90
2023/05/26 06:57:42;;;;;;;8.73;3.15;;;17.90;99.90;;;;;;5071633;28;20051;-91
2023/05/26 07:00:08;;;;;;;9.65;2.25;;;18.20;99.90;;;;;;5060259;28;20044;-88
2023/05/26 07:02:35;;;;;;;9.32;2.08;;;18.70;99.90;;;;;;5093220;28;20052;-85
2023/05/26 07:05:01;;;;;;;8.75;2.53;;;19.00;99.90;;;;;;5063949;28;20500;-91
2023/05/26 07:07:27;;;;;;;8.48;2.22;;;19.10;99.90;;;;;;5059746;28;20058;-89
2023/05/26 07:09:53;;;;;;;8.05;2.35;;;19.30;95.60;;;;;;5060052;28;20039;-88
2023/05/26 07:12:22;;;;;;;9.02;2.25;;;19.50;92.90;;;;;;5066709;28;20042;-87
2023/05/26 07:14:48;;;;;;;9.23;2.35;;;19.60;91.20;;;;;;5059162;28;20389;-89
2023/05/26 07:17:21;;;;;;;6.65;2.17;;;19.90;88.50;;;;;;5085270;28;20043;-90
2023/05/26 07:19:47;;;;;;;7.78;1.98;;;20.10;82.20;;;;;;5061177;28;20118;-90
2023/05/26 07:22:13;;;;;;;9.65;2.60;;;20.20;80.00;;;;;;5076566;28;20624;-89
2023/05/26 07:24:39;;;;;;;8.40;2.17;;;20.20;77.30;;;;;;5047217;28;20056;-88
2023/05/26 07:27:05;;;;;;;8.57;2.00;;;20.40;76.70;;;;;;5084638;28;20040;-91
2023/05/26 07:29:33;;;;;;;6.22;1.98;;;20.80;76.40;;;;;;5047383;28;20089;-91
2023/05/26 07:31:59;;;;;;;7.40;2.38;;;20.80;75.20;;;;;;5075457;28;20466;-89
2023/05/26 07:34:24;;;;;;;8.10;2.30;;;20.90;74.40;;;;;;5088660;28;20188;-87
2023/05/26 07:36:50;;;;;;;8.18;2.00;;;20.90;73.60;;;;;;5085510;28;20101;-89
2023/05/26 07:39:16;;;;;;;8.48;2.10;;;21.10;73.80;;;;;;5091956;28;20126;-89
2023/05/26 07:41:41;;;;;;;9.73;1.83;;;21.10;73.20;;;;;;5075904;28;20558;-89
2023/05/26 07:44:07;;;;;;;9.13;2.50;;;21.10;72.00;;;;;;5056223;28;20063;-88
2023/05/26 07:46:33;;;;;;;5.68;1.85;;;21.10;71.20;;;;;;5058891;28;20044;-88
2023/05/26 07:48:59;;;;;;;6.53;1.92;;;21.10;70.70;;;;;;5058262;28;20047;-86
2023/05/26 07:51:24;;;;;;;6.43;2.30;;;21.30;70.50;;;;;;5068754;28;20043;-88
2023/05/26 07:53:50;;;;;;;7.25;2.50;;;21.30;70.30;;;;;;5070821;28;20071;-88
2023/05/26 07:56:16;;;;;;;8.18;2.47;;;21.20;69.60;;;;;;5045304;28;20044;-88
2023/05/26 07:58:42;;;;;;;11.70;2.10;;;21.30;69.00;;;;;;5080398;28;20143;-89
2023/05/26 08:01:07;;;;;;;8.93;2.25;;;21.40;69.30;;;;;;5059607;28;20043;-85
2023/05/26 08:03:34;;;;;;;9.52;2.30;;;21.40;68.60;;;;;;5081272;28;20044;-90
2023/05/26 08:06:00;;;;;;;6.95;1.85;;;21.30;67.40;;;;;;5051875;28;20044;-89
2023/05/26 08:08:25;;;;;;;6.50;2.25;;;21.40;67.00;;;;;;5059928;28;20039;-89
2023/05/26 08:10:52;;;;;;;6.88;1.92;;;21.50;66.60;;;;;;5062697;28;20123;-86
2023/05/26 08:13:18;;;;;;;8.10;2.47;;;21.40;65.60;;;;;;5074320;28;20043;-88
2023/05/26 08:15:44;;;;;;;7.43;2.17;;;21.00;65.00;;;;;;5043775;28;20043;-86
2023/05/26 08:18:10;;;;;;;6.57;2.10;;;20.40;65.30;;;;;;5058934;28;20036;-88
2023/05/26 08:20:36;;;;;;;8.20;2.20;;;19.60;66.40;;;;;;5078490;28;20039;-89
2023/05/26 08:23:03;;;;;;;7.20;2.03;;;19.10;67.50;;;;;;5062126;28;20035;-88
2023/05/26 08:25:29;;;;;;;;;;;18.70;68.00;;;;;;5079650;28;20051;-88
2023/05/26 08:27:55;;;;;;;6.72;1.88;;;18.70;67.00;;;;;;5060627;28;20008;-88
2023/05/26 08:30:21;;;;;;;10.10;2.03;;;18.70;69.00;;;;;;5074516;28;20107;-87
2023/05/26 08:32:46;;;;;;;6.95;2.08;;;18.50;68.80;;;;;;5051626;28;20378;-89
2023/05/26 08:35:12;;;;;;;7.88;2.22;;;18.30;68.50;;;;;;5062182;28;20520;-87
2023/05/26 08:37:38;;;;;;;7.32;2.58;;;18.10;69.00;;;;;;5111926;27;20051;-89
2023/05/26 08:40:05;;;;;;;8.88;2.38;;;18.20;69.40;;;;;;5074142;28;20055;-88
2023/05/26 08:42:36;;;;;;;7.88;1.83;;;18.70;68.80;;;;;;5081764;28;20088;-89
2023/05/26 08:45:02;;;;;;;8.45;2.20;;;19.30;68.40;;;;;;5080490;28;20035;-88
2023/05/26 08:47:30;;;;;;;6.72;2.00;;;19.80;68.30;;;;;;5076381;28;20039;-86
2023/05/26 08:50:02;;;;;;;7.53;2.28;;;20.10;67.20;;;;;;5072068;28;20047;-90
2023/05/26 08:52:28;;;;;;;6.70;2.08;;;20.30;66.60;;;;;;5074551;28;20052;-87
2023/05/26 08:54:54;;;;;;;7.30;2.17;;;20.20;66.50;;;;;;5089564;28;20040;-89
2023/05/26 08:57:20;;;;;;;6.18;2.20;;;20.30;66.90;;;;;;5067023;28;20473;-89
2023/05/26 08:59:47;;;;;;;7.82;1.92;;;20.20;66.60;;;;;;5059783;28;20118;-89
2023/05/26 09:02:12;;;;;;;6.03;2.00;;;20.30;66.00;;;;;;5079800;28;20036;-90
2023/05/26 09:04:39;;;;;;;6.90;1.77;;;20.30;65.90;;;;;;5062651;28;20032;-91
2023/05/26 09:07:08;;;;;;;5.50;2.35;;;20.20;66.40;;;;;;5080186;28;20043;-90
2023/05/26 09:09:34;;;;;;;8.02;2.47;;;20.30;65.80;;;;;;5059770;28;20549;-87
2023/05/26 09:12:00;;;;;;;9.40;2.33;;;20.30;66.00;;;;;;5078352;28;20035;-93
2023/05/26 09:14:26;;;;;;;6.53;1.90;;;20.20;66.10;;;;;;5076942;28;20497;-89
2023/05/26 09:16:54;;;;;;;8.07;2.15;;;20.10;66.90;;;;;;5108514;28;20043;-90
2023/05/26 09:19:20;;;;;;;6.63;2.15;;;20.00;67.50;;;;;;5076648;28;20050;-88
2023/05/26 09:21:48;;;;;;;6.78;2.13;;;20.00;67.30;;;;;;5077227;28;20044;-91
2023/05/26 09:24:16;;;;;;;10.40;2.50;;;19.80;67.20;;;;;;5083960;28;20113;-88
2023/05/26 09:26:43;;;;;;;5.80;1.70;;;19.60;67.20;;;;;;5076960;28;20040;-89
2023/05/26 09:29:09;;;;;;;7.03;2.10;;;19.30;67.10;;;;;;5093836;28;20134;-90
2023/05/26 09:31:46;;;;;;;7.88;1.88;;;19.30;68.40;;;;;;5105013;28;20475;-90
2023/05/26 09:34:13;;;;;;;8.18;2.22;;;19.30;68.70;;;;;;5076583;28;20201;-89
2023/05/26 09:36:42;;;;;;;6.22;1.77;;;19.30;68.10;;;;;;5075989;28;20109;-91
2023/05/26 09:39:12;;;;;;;7.22;2.17;;;19.30;68.00;;;;;;5075045;28;20043;-91
2023/05/26 09:41:42;;;;;;;9.15;2.42;;;19.20;67.60;;;;;;5077925;28;20036;-90
2023/05/26 09:44:13;;;;;;;7.70;2.40;;;19.40;68.10;;;;;;5060032;28;20413;-86
2023/05/26 09:46:40;;;;;;;7.32;2.20;;;19.30;67.70;;;;;;5077345;28;20078;-88
2023/05/26 09:49:12;;;;;;;;;;;19.10;68.30;;;;;;5078555;28;20059;-88
2023/05/26 09:51:39;;;;;;;8.07;2.30;;;18.70;69.30;;;;;;5074867;28;19915;-89
2023/05/26 09:54:04;;;;;;;7.78;2.10;;;18.20;69.60;;;;;;5076991;28;20047;-87
2023/05/26 09:56:36;;;;;;;6.78;2.20;;;17.90;70.10;;;;;;5074720;28;20447;-86
2023/05/26 09:59:06;;;;;;;9.40;2.47;;;17.60;70.90;;;;;;5076075;28;20051;-87
2023/05/26 10:01:39;;;;;;;10.05;2.40;;;17.50;71.30;;;;;;5109464;28;20048;-88
2023/05/26 10:04:07;;;;;;;6.80;1.95;;;17.30;71.80;;;;;;5073908;28;20118;-87
2023/05/26 10:06:37;;;;;;;8.25;2.47;;;17.30;72.40;;;;;;5092765;28;20031;-88
2023/05/26 10:09:04;;;;;;;11.07;2.47;;;17.10;72.30;;;;;;5056981;28;20439;-88
2023/05/26 10:11:33;;;;;;;9.55;2.30;;;17.00;72.70;;;;;;5073232;28;20075;-86
2023/05/26 10:14:00;;;;;;;7.60;2.38;;;17.20;72.80;;;;;;5090579;28;20054;-88
2023/05/26 10:16:26;;;;;;;9.77;2.38;;;17.40;72.90;;;;;;5107023;28;20769;-87
2023/05/26 10:18:52;;;;;;;7.13;1.90;;;17.50;72.70;;;;;;5092843;28;20131;-89
2023/05/26 10:21:21;;;;;;;8.05;2.47;;;17.40;72.80;;;;;;5083115;28;20042;-88
2023/05/26 10:24:16;;;;;;;9.98;2.45;;;17.50;73.10;;;;;;5074424;28;20043;-90
2023/05/26 10:26:52;;;;;;;10.00;2.72;;;17.70;73.10;;;;;;5098588;28;20143;-87
2023/05/26 10:29:21;;;;;;;9.50;2.55;;;17.90;73.10;;;;;;5073575;28;20031;-91
2023/05/26 10:31:47;;;;;;;9.27;2.55;;;18.10;72.90;;;;;;5060728;28;20090;-90
2023/05/26 10:34:36;;;;;;;6.65;2.08;;;18.10;72.20;;;;;;5059434;28;20074;-88
2023/05/26 10:37:02;;;;;;;6.80;2.05;;;18.20;70.30;;;;;;5064806;28;20050;-90
2023/05/26 10:39:28;;;;;;;6.68;2.25;;;18.30;71.20;;;;;;5075982;28;20644;-90
2023/05/26 10:41:54;;;;;;;7.88;2.50;;;18.40;70.70;;;;;;5075866;28;20051;-89
2023/05/26 10:44:56;;;;;;;7.13;2.08;;;18.50;71.10;;;;;;5059800;28;20506;-90
2023/05/26 10:47:28;;;;;;;9.95;2.60;;;18.50;71.00;;;;;;5017390;28;20047;-89
2023/05/26 10:49:58;;;;;;;6.65;2.15;;;18.50;71.00;;;;;;5077215;28;20047;-89
2023/05/26 10:52:45;;;;;;;7.53;2.05;;;18.70;71.20;;;;;;5077564;28;20040;-90
2023/05/26 10:55:28;;;;;;;8.57;2.10;;;18.70;70.70;;;;;;5075730;28;20043;-89
2023/05/26 10:57:54;;;;;;;7.22;2.30;;;18.50;71.60;;;;;;5058798;28;20079;-87
2023/05/26 11:00:24;;;;;;;10.85;2.60;;;18.20;71.40;;;;;;5042822;28;20438;-87
2023/05/26 11:02:50;;;;;;;8.70;2.50;;;17.80;71.80;;;;;;5076417;28;20061;-87
2023/05/26 11:05:54;;;;;;;8.75;2.28;;;17.50;73.00;;;;;;5042394;28;20043;-88
2023/05/26 11:08:23;;;;;;;7.20;2.35;;;17.30;72.80;;;;;;5080546;28;20051;-87
2023/05/26 11:11:04;;;;;;;9.63;2.38;;;17.30;73.50;;;;;;5074177;28;20032;-89
2023/05/26 11:13:41;;;;;;;7.32;2.30;;;17.40;73.90;;;;;;5075693;28;20047;-88
2023/05/26 11:16:23;;;;;;;6.18;2.22;;;17.50;73.80;;;;;;5074538;28;20439;-91
2023/05/26 11:18:50;;;;;;;7.15;2.22;;;17.40;72.90;;;;;;5077519;28;20048;-91
2023/05/26 11:21:27;;;;;;;;;;;17.60;73.80;;;;;;5075580;28;20078;-88
2023/05/26 11:23:57;;;;;;;8.60;2.40;;;17.70;74.50;;;;;;5074417;28;20484;-90
2023/05/26 11:26:26;;;;;;;12.13;2.50;;;17.60;74.00;;;;;;5073588;28;20036;-89
2023/05/26 11:28:52;;;;;;;8.18;2.70;;;17.40;73.70;;;;;;5057702;28;20035;-89
2023/05/26 11:31:21;;;;;;;10.32;2.65;;;17.40;74.10;;;;;;5071573;28;20046;-90
2023/05/26 11:33:48;;;;;;;9.85;2.63;;;17.30;74.30;;;;;;5117539;27;20055;-88
2023/05/26 11:36:16;;;;;;;8.93;2.25;;;17.10;74.50;;;;;;5069308;28;20032;-87
2023/05/26 11:38:43;;;;;;;8.48;2.50;;;17.10;74.80;;;;;;5082061;28;20044;-87
2023/05/26 11:41:12;;;;;;;7.35;2.53;;;17.20;75.40;;;;;;5085716;28;20039;-90
2023/05/26 11:43:39;;;;;;;9.63;2.40;;;17.00;75.80;;;;;;5077428;28;20081;-88
2023/05/26 11:46:10;;;;;;;8.98;2.63;;;17.00;75.50;;;;;;5078221;28;20036;-89
2023/05/26 11:48:39;;;;;;;8.38;3.28;;;16.90;76.00;;;;;;5079476;28;20085;-86
2023/05/26 11:51:12;;;;;;;10.65;2.80;;;16.80;76.60;;;;;;5077932;28;20118;-86
2023/05/26 11:53:39;;;;;;;7.22;2.03;;;16.70;76.90;;;;;;5086382;28;20688;-88
2023/05/26 11:56:06;;;;;;;;;;;16.70;77.00;;;;;;5091835;28;20331;-88
2023/05/26 11:58:53;;;;;;;7.70;2.55;;;16.70;76.40;;;;;;5077299;28;19976;-88
2023/05/26 12:01:21;;;;;;;7.47;2.25;;;16.70;76.50;;;;;;5061376;28;20647;-89
2023/05/26 12:03:50;;;;;;;11.10;2.22;;;16.70;75.70;;;;;;5123232;27;20032;-86
2023/05/26 12:06:22;;;;;;;7.10;2.33;;;16.70;76.50;;;;;;5077030;28;20043;-86
2023/05/26 12:08:53;;;;;;;6.95;2.30;;;16.70;77.20;;;;;;5106826;28;20039;-89
2023/05/26 12:11:29;;;;;;;8.35;2.35;;;16.80;76.70;;;;;;5079129;28;20028;-85
2023/05/26 12:14:01;;;;;;;9.30;2.22;;;16.70;77.20;;;;;;5119540;27;20039;-88
2023/05/26 12:16:35;;;;;;;9.55;2.72;;;16.70;77.70;;;;;;5069307;28;20126;-85
2023/05/26 12:19:07;;;;;;;7.20;2.10;;;16.70;78.00;;;;;;5067077;28;20075;-86
2023/05/26 12:21:46;;;;;;;7.32;2.58;;;16.80;79.10;;;;;;5071937;28;20089;-86
2023/05/26 12:24:13;;;;;;;5.90;2.30;;;16.90;79.70;;;;;;5107789;28;20032;-85
2023/05/26 12:26:40;;;;;;;7.88;2.20;;;16.80;80.20;;;;;;5104602;28;20040;-86
2023/05/26 12:29:06;;;;;;;9.27;2.30;;;16.60;83.30;;;;;;5056480;28;20097;-86
2023/05/26 12:31:43;;;;;;;9.90;3.35;;;16.20;90.10;;;;;;5063878;28;20037;-84
2023/05/26 12:34:11;;;;;;;9.27;2.60;;;16.00;93.80;;;;;;5069104;28;20039;-85
2023/05/26 12:36:37;;;;;;;8.25;2.50;;;15.90;99.90;;;;;;5105136;28;20485;-84
2023/05/26 12:39:04;;;;;;;9.68;2.90;;;16.00;99.90;;;;;;5071105;28;20134;-84
2023/05/26 12:41:30;;;;;;;11.95;2.88;;;16.10;99.90;;;;;;5107322;28;20040;-83
2023/05/26 12:43:57;;;;;;;11.63;2.72;;;16.10;99.90;;;;;;5090944;28;20078;-85
2023/05/26 12:46:23;;;;;;;11.43;3.08;;;15.90;99.90;;;;;;5091906;28;20536;-84
2023/05/26 12:48:48;;;;;;;9.88;2.78;;;15.90;99.90;;;;;;5050121;28;20036;-84
2023/05/26 12:51:16;;;;;;;8.05;2.35;;;15.80;99.90;;;;;;5057873;28;20043;-82